Time;durP1;ratioP1;P1;durP2;ratioP2;P2;SDS_P1;SDS_P2;PMS_P1;PMS_P2;Temp;Humidity;BMP_temperature;BMP_pressure;BME280_temperature;BME280_humidity;BME280_pressure;Samples;Min_cycle;Max_cycle;Signal;HPM_P1;HPM_P2
2021/06/10 00:01:14;;;;;;;7.73;3.90;;;;;;;15.87;100.00;96063.47;5054448;28;20258;-83
2021/06/10 00:03:41;;;;;;;4.17;3.80;;;;;;;15.81;100.00;96045.69;5054886;28;20198;-82
2021/06/10 00:06:07;;;;;;;4.07;3.77;;;;;;;15.82;100.00;96066.69;5055039;28;20662;-83
2021/06/10 00:08:35;;;;;;;4.57;3.67;;;;;;;15.85;100.00;96081.38;5055160;28;20198;-83
2021/06/10 00:11:01;;;;;;;5.60;4.00;;;;;;;15.75;100.00;96102.09;5054770;28;20583;-83
2021/06/10 00:13:28;;;;;;;4.67;3.97;;;;;;;15.72;100.00;96131.63;5054649;28;20578;-83
2021/06/10 00:15:55;;;;;;;3.97;3.67;;;;;;;15.79;100.00;96138.63;5054615;28;20241;-83
2021/06/10 00:18:24;;;;;;;4.93;3.97;;;;;;;15.79;100.00;96149.22;5054437;28;20204;-83
2021/06/10 00:20:51;;;;;;;3.97;3.67;;;;;;;15.80;100.00;96163.31;5054758;28;20584;-83
2021/06/10 00:23:17;;;;;;;5.53;4.00;;;;;;;15.80;100.00;96174.72;5054577;28;20200;-83
2021/06/10 00:25:44;;;;;;;4.03;3.70;;;;;;;15.80;100.00;96185.31;5054392;28;20203;-83
2021/06/10 00:28:11;;;;;;;4.00;3.70;;;;;;;15.71;100.00;96193.59;5054462;28;20195;-83
2021/06/10 00:30:38;;;;;;;4.03;3.70;;;;;;;15.93;100.00;96196.03;5054334;28;20203;-82
2021/06/10 00:33:06;;;;;;;4.17;3.67;;;;;;;16.16;100.00;96201.03;5054352;28;20211;-83
2021/06/10 00:35:35;;;;;;;4.77;2.90;;;;;;;16.35;100.00;96199.53;5054434;28;20224;-83
2021/06/10 00:38:02;;;;;;;4.67;3.70;;;;;;;16.29;100.00;96232.13;5054277;28;20199;-83
2021/06/10 00:40:30;;;;;;;4.47;3.67;;;;;;;16.28;100.00;96246.41;5053763;28;20208;-83
2021/06/10 00:42:58;;;;;;;5.07;3.70;;;;;;;16.14;100.00;96250.81;5054252;28;20309;-83
2021/06/10 00:45:25;;;;;;;5.07;4.40;;;;;;;16.19;100.00;96244.91;5054004;28;20201;-83
2021/06/10 00:47:54;;;;;;;4.27;3.97;;;;;;;16.17;100.00;96237.16;5054425;28;20200;-83
2021/06/10 00:50:23;;;;;;;4.63;4.23;;;;;;;16.10;100.00;96238.13;5054052;28;20205;-83
2021/06/10 00:52:51;;;;;;;7.10;3.97;;;;;;;15.97;100.00;96212.34;5054008;28;20636;-83
2021/06/10 00:55:18;;;;;;;4.03;3.73;;;;;;;16.02;100.00;96195.84;5053744;28;20234;-83
2021/06/10 00:57:45;;;;;;;4.80;4.37;;;;;;;15.97;100.00;96174.41;5053952;28;20235;-83
2021/06/10 01:00:15;;;;;;;3.73;3.43;;;;;;;15.94;100.00;96143.81;5052996;28;20239;-83
2021/06/10 01:02:42;;;;;;;4.07;3.53;;;;;;;16.03;100.00;96125.91;5054138;28;20211;-83
2021/06/10 01:05:10;;;;;;;5.30;3.80;;;;;;;15.99;100.00;96114.06;5053723;28;20206;-83
2021/06/10 01:07:47;;;;;;;4.03;3.73;;;;;;;15.88;100.00;96113.59;5053750;28;20248;-83
2021/06/10 01:10:24;;;;;;;3.87;3.57;;;;;;;15.76;100.00;96093.97;5053335;28;20185;-83
2021/06/10 01:12:57;;;;;;;4.50;4.20;;;;;;;15.51;100.00;96095.41;5054016;28;20186;-84
2021/06/10 01:15:29;;;;;;;4.33;4.03;;;;;;;15.33;100.00;96091.41;5053683;28;20208;-84
2021/06/10 01:17:56;;;;;;;4.23;3.87;;;;;;;15.40;100.00;96084.31;5053394;28;20193;-83
2021/06/10 01:20:26;;;;;;;3.73;3.43;;;;;;;15.81;100.00;96080.13;5053361;28;20286;-83
2021/06/10 01:23:06;;;;;;;3.17;2.97;;;;;;;16.01;100.00;96101.44;5053563;28;20193;-83
2021/06/10 01:25:45;;;;;;;3.47;3.17;;;;;;;16.13;100.00;96134.31;5053307;28;20190;-83
2021/06/10 01:28:14;;;;;;;4.00;3.33;;;;;;;16.27;100.00;96151.13;5053548;28;20188;-83
2021/06/10 01:30:47;;;;;;;3.20;3.00;;;;;;;16.17;100.00;96184.13;5053371;28;20561;-83
2021/06/10 01:33:17;;;;;;;3.70;3.20;;;;;;;16.24;100.00;96212.50;5053367;28;20196;-83
2021/06/10 01:35:47;;;;;;;3.33;3.13;;;;;;;16.26;100.00;96223.75;5053002;28;20803;-83
2021/06/10 01:38:15;;;;;;;3.63;3.30;;;;;;;16.26;100.00;96245.78;5053349;28;20301;-84
2021/06/10 01:40:44;;;;;;;3.80;3.60;;;;;;;16.31;100.00;96261.91;5052890;28;20689;-83
2021/06/10 01:43:16;;;;;;;3.47;3.27;;;;;;;16.42;100.00;96273.84;5053384;28;20662;-84
2021/06/10 01:45:44;;;;;;;4.20;3.50;;;;;;;16.41;100.00;96293.41;5052887;28;20188;-83
2021/06/10 01:48:11;;;;;;;3.87;3.57;;;;;;;16.46;100.00;96311.41;5052928;28;20223;-83
2021/06/10 01:50:39;;;;;;;4.97;3.77;;;;;;;16.50;100.00;96329.38;5052737;28;20203;-83
2021/06/10 01:53:14;;;;;;;5.40;3.33;;;;;;;16.53;100.00;96350.22;5052886;28;20200;-83
2021/06/10 01:55:42;;;;;;;3.37;3.17;;;;;;;16.55;100.00;96366.75;5052586;28;20213;-84
2021/06/10 01:58:10;;;;;;;3.50;3.20;;;;;;;16.51;100.00;96375.31;5051143;28;20628;-83
2021/06/10 02:00:40;;;;;;;3.30;3.10;;;;;;;16.45;100.00;96395.44;5052303;28;20721;-84
2021/06/10 02:03:08;;;;;;;5.13;3.90;;;;;;;16.40;100.00;96413.78;5052603;28;20270;-84
2021/06/10 02:05:36;;;;;;;4.67;3.70;;;;;;;16.50;100.00;96424.06;5052322;28;20193;-83
2021/06/10 02:08:04;;;;;;;3.97;3.67;;;;;;;16.49;100.00;96438.38;5052603;28;20189;-83
2021/06/10 02:10:31;;;;;;;3.73;3.43;;;;;;;16.49;100.00;96448.97;5052521;28;20228;-84
2021/06/10 02:12:59;;;;;;;3.03;2.83;;;;;;;16.51;100.00;96452.25;5051660;28;20752;-83
2021/06/10 02:15:26;;;;;;;3.47;3.17;;;;;;;16.45;100.00;96474.22;5052556;28;20228;-83
2021/06/10 02:17:55;;;;;;;3.37;3.17;;;;;;;16.43;100.00;96476.25;5052188;28;20201;-83
2021/06/10 02:20:22;;;;;;;5.70;3.17;;;;;;;16.43;100.00;96487.69;5052212;28;20217;-83
2021/06/10 02:22:49;;;;;;;3.60;3.27;;;;;;;16.31;100.00;96497.16;5052712;28;20615;-84
2021/06/10 02:25:16;;;;;;;3.47;3.20;;;;;;;16.35;100.00;96504.56;5052078;28;20231;-83
2021/06/10 02:27:43;;;;;;;3.27;3.07;;;;;;;16.31;100.00;96511.22;5051956;28;20220;-83
2021/06/10 02:30:12;;;;;;;3.50;3.20;;;;;;;16.32;100.00;96522.69;5050413;28;20685;-86
2021/06/10 02:32:39;;;;;;;3.83;3.10;;;;;;;16.33;100.00;96519.81;5052141;28;20230;-87
2021/06/10 02:35:10;;;;;;;3.30;3.00;;;;;;;16.40;100.00;96522.53;5053012;28;20224;-88
2021/06/10 02:37:37;;;;;;;3.57;3.37;;;;;;;16.48;100.00;96535.69;5052759;28;20583;-87
2021/06/10 02:40:09;;;;;;;3.17;2.87;;;;;;;16.51;100.00;96561.84;5052685;28;20200;-89
2021/06/10 02:42:37;;;;;;;3.43;3.23;;;;;;;16.40;100.00;96562.34;5052837;28;20181;-87
2021/06/10 02:45:06;;;;;;;5.00;3.10;;;;;;;16.43;100.00;96577.88;5052098;28;20212;-86
2021/06/10 02:47:33;;;;;;;3.73;3.50;;;;;;;16.41;100.00;96586.00;5052155;28;20197;-87
2021/06/10 02:50:01;;;;;;;3.93;3.60;;;;;;;16.37;100.00;96595.34;5052016;28;20201;-87
2021/06/10 02:52:30;;;;;;;3.43;3.13;;;;;;;16.31;100.00;96592.63;5052166;28;20208;-87
2021/06/10 02:54:57;;;;;;;3.97;3.67;;;;;;;16.14;100.00;96589.38;5052305;28;20225;-86
2021/06/10 02:57:27;;;;;;;5.07;3.43;;;;;;;15.92;100.00;96576.06;5052401;28;20205;-87
2021/06/10 02:59:55;;;;;;;3.83;3.40;;;;;;;15.98;100.00;96532.09;5051842;28;20705;-86
2021/06/10 03:02:22;;;;;;;4.03;3.73;;;;;;;15.98;100.00;96496.81;5051857;28;20193;-86
2021/06/10 03:04:49;;;;;;;3.60;3.40;;;;;;;15.89;100.00;96473.03;5052088;28;20201;-87
2021/06/10 03:07:18;;;;;;;3.90;3.37;;;;;;;15.87;100.00;96437.97;5052484;28;20666;-88
2021/06/10 03:09:47;;;;;;;3.30;3.10;;;;;;;16.08;100.00;96400.03;5052352;28;20689;-88
2021/06/10 03:12:18;;;;;;;4.00;3.70;;;;;;;16.04;100.00;96390.03;5052028;28;20208;-84
2021/06/10 03:14:46;;;;;;;5.77;4.53;;;;;;;16.09;100.00;96372.50;5051673;28;20213;-85
2021/06/10 03:17:15;;;;;;;3.83;3.53;;;;;;;16.07;100.00;96363.09;5051291;28;20196;-85
2021/06/10 03:19:43;;;;;;;4.07;3.77;;;;;;;16.25;100.00;96355.53;5051488;28;20670;-84
2021/06/10 03:22:11;;;;;;;3.80;3.50;;;;;;;16.34;100.00;96342.94;5051243;28;20199;-84
2021/06/10 03:24:39;;;;;;;4.23;3.93;;;;;;;16.26;100.00;96359.81;5053963;28;20242;-84
2021/06/10 03:27:09;;;;;;;4.37;3.90;;;;;;;16.16;100.00;96357.47;5055312;28;20205;-84
2021/06/10 03:29:37;;;;;;;3.80;3.50;;;;;;;16.12;100.00;96352.75;5055571;28;20242;-84
2021/06/10 03:32:05;;;;;;;4.40;3.33;;;;;;;16.14;100.00;96345.41;5055221;28;20224;-85
2021/06/10 03:34:33;;;;;;;3.00;2.80;;;;;;;16.33;100.00;96338.66;5053723;28;20235;-84
2021/06/10 03:37:01;;;;;;;5.73;2.80;;;;;;;16.46;100.00;96364.47;5054302;28;20685;-83
2021/06/10 03:39:30;;;;;;;2.60;2.40;;;;;;;16.46;100.00;96393.66;5054863;28;20201;-84
2021/06/10 03:41:59;;;;;;;2.97;2.77;;;;;;;16.52;100.00;96420.22;5054382;28;20233;-84
2021/06/10 03:44:31;;;;;;;2.60;2.30;;;;;;;16.58;100.00;96432.69;5054273;28;20239;-84
2021/06/10 03:46:58;;;;;;;4.40;2.20;;;;;;;16.57;100.00;96451.47;5053947;28;20692;-84
2021/06/10 03:49:25;;;;;;;3.60;2.30;;;;;;;16.67;100.00;96467.91;5054284;28;20196;-85
2021/06/10 03:51:55;;;;;;;2.70;2.50;;;;;;;16.71;100.00;96477.09;5053967;28;20204;-84
2021/06/10 03:54:22;;;;;;;2.93;2.37;;;;;;;16.80;100.00;96494.59;5054198;28;20219;-84
2021/06/10 03:56:49;;;;;;;2.80;2.60;;;;;;;16.92;100.00;96496.69;5054406;28;20317;-84
2021/06/10 03:59:16;;;;;;;2.10;2.00;;;;;;;16.94;100.00;96499.97;5054171;28;20197;-84
2021/06/10 04:01:44;;;;;;;2.77;2.57;;;;;;;16.96;100.00;96516.53;5053961;28;20844;-84
2021/06/10 04:04:11;;;;;;;2.20;2.03;;;;;;;17.02;100.00;96540.50;5053912;28;20201;-84
2021/06/10 04:06:38;;;;;;;4.93;2.37;;;;;;;17.06;100.00;96547.06;5053982;28;20559;-85
2021/06/10 04:09:07;;;;;;;2.67;2.47;;;;;;;17.04;100.00;96558.88;5052874;28;20205;-85
2021/06/10 04:11:35;;;;;;;2.83;2.63;;;;;;;17.01;100.00;96575.22;5053010;28;20208;-85
2021/06/10 04:14:02;;;;;;;2.23;2.03;;;;;;;17.01;100.00;96599.94;5053753;28;20198;-85
2021/06/10 04:16:29;;;;;;;4.17;2.63;;;;;;;17.01;100.00;96612.41;5054728;28;20600;-85
2021/06/10 04:18:57;;;;;;;2.30;2.20;;;;;;;17.04;100.00;96620.81;5054649;28;20201;-84
2021/06/10 04:21:25;;;;;;;4.67;2.37;;;;;;;17.08;100.00;96634.50;5054551;28;20205;-85
2021/06/10 04:23:52;;;;;;;2.77;2.57;;;;;;;17.14;100.00;96636.38;5054658;28;20202;-85
2021/06/10 04:26:19;;;;;;;2.63;2.43;;;;;;;17.22;100.00;96623.00;5054374;28;20198;-84
2021/06/10 04:28:47;;;;;;;2.40;2.20;;;;;;;17.31;100.00;96635.09;5054465;28;20208;-85
2021/06/10 04:31:15;;;;;;;2.20;2.10;;;;;;;17.40;100.00;96629.66;5054209;28;20260;-84
2021/06/10 04:33:42;;;;;;;2.00;1.90;;;;;;;17.57;100.00;96625.72;5054488;28;20198;-85
2021/06/10 04:36:10;;;;;;;2.33;2.13;;;;;;;17.62;100.00;96620.63;5053300;28;20280;-83
2021/06/10 04:38:38;;;;;;;2.13;1.90;;;;;;;17.57;100.00;96628.38;5054618;28;20574;-84
2021/06/10 04:41:05;;;;;;;2.50;2.30;;;;;;;17.65;100.00;96636.19;5054373;28;20258;-84
2021/06/10 04:43:33;;;;;;;2.63;2.43;;;;;;;17.71;100.00;96637.25;5054362;28;20637;-83
2021/06/10 04:46:00;;;;;;;5.03;2.33;;;;;;;17.76;100.00;96642.84;5054007;28;20259;-83
2021/06/10 04:48:27;;;;;;;2.07;1.80;;;;;;;17.85;100.00;96648.84;5054134;28;20201;-84
2021/06/10 04:50:55;;;;;;;5.60;2.80;;;;;;;17.94;100.00;96660.94;5053722;28;20540;-84
2021/06/10 04:53:23;;;;;;;3.87;2.40;;;;;;;17.99;100.00;96663.84;5054033;28;20201;-83
2021/06/10 04:55:50;;;;;;;2.50;2.30;;;;;;;18.04;100.00;96662.22;5053763;28;20224;-83
2021/06/10 04:58:17;;;;;;;2.30;2.10;;;;;;;18.15;100.00;96676.84;5054257;28;20229;-83
2021/06/10 05:00:44;;;;;;;4.60;2.70;;;;;;;18.26;100.00;96686.13;5053409;28;20229;-83
2021/06/10 05:03:11;;;;;;;2.60;2.40;;;;;;;18.28;100.00;96684.06;5054117;28;20271;-84
2021/06/10 05:05:39;;;;;;;4.73;2.40;;;;;;;18.45;100.00;96692.53;5053588;28;20194;-84
2021/06/10 05:08:06;;;;;;;2.50;2.30;;;;;;;18.60;100.00;96695.91;5053539;28;20205;-84
2021/06/10 05:10:35;;;;;;;2.57;2.37;;;;;;;18.72;100.00;96696.16;5053872;28;20587;-84
2021/06/10 05:13:01;;;;;;;4.30;3.00;;;;;;;18.68;100.00;96682.41;5053919;28;20634;-84
2021/06/10 05:55:13;;;;;;;3.30;3.00;;;;;;;20.79;100.00;96582.94;5110028;27;20548;-84
2021/06/10 05:57:40;;;;;;;4.00;3.37;;;;;;;20.78;100.00;96565.25;5109842;28;20199;-85
2021/06/10 06:00:08;;;;;;;4.30;2.93;;;;;;;21.13;100.00;96574.47;5109878;28;20560;-84
2021/06/10 06:02:35;;;;;;;3.10;2.80;;;;;;;21.36;100.00;96565.88;5109746;28;20199;-85
2021/06/10 06:05:03;;;;;;;3.73;2.83;;;;;;;21.52;100.00;96544.97;5109631;28;20199;-85
2021/06/10 06:07:30;;;;;;;3.93;3.13;;;;;;;21.53;100.00;96541.25;5109848;28;20199;-85
2021/06/10 06:09:57;;;;;;;2.60;2.40;;;;;;;21.37;100.00;96545.28;5109717;28;20582;-85
2021/06/10 06:12:25;;;;;;;3.20;2.90;;;;;;;21.10;100.00;96569.56;5109936;28;20196;-85
2021/06/10 06:14:52;;;;;;;3.83;3.50;;;;;;;20.90;100.00;96598.28;5109703;28;20203;-85
2021/06/10 06:17:19;;;;;;;3.70;3.10;;;;;;;20.72;100.00;96627.56;5109187;28;20195;-85
2021/06/10 06:19:47;;;;;;;2.80;2.60;;;;;;;20.86;100.00;96626.47;5109251;28;20187;-85
2021/06/10 06:22:14;;;;;;;2.80;2.60;;;;;;;20.88;100.00;96619.84;5109385;28;20249;-85
2021/06/10 06:24:41;;;;;;;3.30;3.00;;;;;;;21.00;100.00;96611.97;5109164;28;20226;-85
2021/06/10 06:27:09;;;;;;;3.27;3.00;;;;;;;20.89;100.00;96612.69;5109468;28;20192;-85
2021/06/10 06:29:38;;;;;;;3.60;3.10;;;;;;;20.73;100.00;96602.50;5108956;28;20199;-85
2021/06/10 06:32:06;;;;;;;4.70;3.10;;;;;;;20.72;100.00;96616.88;5109525;28;20203;-85
2021/06/10 06:34:33;;;;;;;3.20;2.90;;;;;;;20.63;100.00;96609.09;5109005;28;20199;-84
2021/06/10 06:37:00;;;;;;;4.07;2.50;;;;;;;20.71;100.00;96637.41;5108842;28;20199;-85
2021/06/10 06:39:27;;;;;;;3.90;3.47;;;;;;;20.71;100.00;96623.25;5108888;28;20261;-85
2021/06/10 06:41:54;;;;;;;3.27;2.93;;;;;;;20.65;100.00;96625.75;5109026;28;20202;-85
2021/06/10 06:44:21;;;;;;;3.63;3.20;;;;;;;20.76;100.00;96634.13;5108719;28;20222;-85
2021/06/10 06:46:49;;;;;;;2.50;2.30;;;;;;;20.84;100.00;96640.03;5108689;28;20202;-85
2021/06/10 06:49:17;;;;;;;3.00;2.67;;;;;;;20.89;100.00;96594.78;5108845;28;20253;-85
2021/06/10 06:51:44;;;;;;;3.80;2.80;;;;;;;20.89;100.00;96591.31;5108808;28;20200;-85
2021/06/10 06:54:11;;;;;;;4.50;2.73;;;;;;;20.89;100.00;96626.03;5106341;28;20609;-85
2021/06/10 06:56:38;;;;;;;5.73;3.33;;;;;;;20.99;100.00;96633.56;5094975;28;20196;-85
2021/06/10 06:59:05;;;;;;;3.43;3.13;;;;;;;20.97;100.00;96641.81;5094873;28;20203;-85
2021/06/10 07:01:32;;;;;;;6.67;2.97;;;;;;;21.00;100.00;96645.91;5095115;28;20196;-85
2021/06/10 07:04:00;;;;;;;3.13;2.90;;;;;;;20.89;100.00;96602.00;5094859;28;20220;-85
2021/06/10 07:06:27;;;;;;;2.73;2.53;;;;;;;20.98;100.00;96591.84;5094687;28;20196;-85
2021/06/10 07:08:56;;;;;;;3.57;3.20;;;;;;;21.04;100.00;96610.50;5095087;28;20679;-85
2021/06/10 07:11:23;;;;;;;2.97;2.67;;;;;;;21.19;100.00;96618.22;5095228;28;20576;-85
2021/06/10 07:13:50;;;;;;;3.47;3.17;;;;;;;20.98;100.00;96579.31;5094721;28;20645;-84
2021/06/10 07:16:17;;;;;;;4.43;3.30;;;;;;;21.10;100.00;96579.44;5094555;28;20196;-85
2021/06/10 07:18:44;;;;;;;2.97;2.50;;;;;;;21.21;100.00;96577.91;5094834;28;20580;-85
2021/06/10 07:21:12;;;;;;;4.63;3.07;;;;;;;21.19;100.00;96561.25;5094664;28;20197;-85
2021/06/10 07:23:39;;;;;;;3.33;3.07;;;;;;;21.28;100.00;96551.94;5094281;28;20232;-85
2021/06/10 07:26:06;;;;;;;4.13;3.10;;;;;;;21.28;100.00;96570.66;5094480;28;20581;-84
2021/06/10 07:28:33;;;;;;;4.30;3.30;;;;;;;21.26;100.00;96570.03;5094323;28;20282;-84
2021/06/10 07:31:00;;;;;;;3.03;2.83;;;;;;;21.15;100.00;96566.22;5094709;28;20579;-85
2021/06/10 07:33:27;;;;;;;2.93;2.73;;;;;;;21.28;100.00;96581.34;5094217;28;20193;-85
2021/06/10 07:35:54;;;;;;;3.17;2.97;;;;;;;21.42;100.00;96564.19;5094372;28;20196;-84
2021/06/10 07:38:23;;;;;;;3.87;2.90;;;;;;;21.51;100.00;96573.56;5094382;28;20258;-85
2021/06/10 07:40:50;;;;;;;3.23;2.90;;;;;;;21.71;100.00;96576.03;5094328;28;20690;-86
2021/06/10 07:43:17;;;;;;;4.83;2.90;;;;;;;21.97;100.00;96564.25;5094122;28;20307;-86
2021/06/10 07:45:44;;;;;;;3.10;2.90;;;;;;;22.00;100.00;96541.56;5093888;28;20196;-85
2021/06/10 07:48:11;;;;;;;3.43;3.10;;;;;;;22.04;100.00;96521.34;5094579;28;20193;-85
2021/06/10 07:50:38;;;;;;;3.40;2.70;;;;;;;21.99;100.00;96491.75;5094078;28;20207;-85
2021/06/10 07:53:05;;;;;;;2.60;2.43;;;;;;;22.04;100.00;96497.25;5093868;28;20192;-85
2021/06/10 07:55:34;;;;;;;3.70;2.93;;;;;;;21.99;100.00;96521.19;5093685;28;20188;-85
2021/06/10 07:58:01;;;;;;;3.37;3.17;;;;;;;22.08;100.00;96493.91;5094299;28;20651;-85
2021/06/10 08:00:28;;;;;;;3.30;2.70;;;;;;;22.18;100.00;96509.47;5093683;28;20664;-85
2021/06/10 08:02:58;;;;;;;3.13;2.50;;;;;;;22.30;100.00;96496.09;5093695;28;20289;-85
2021/06/10 08:05:25;;;;;;;2.80;2.50;;;;;;;22.39;100.00;96489.41;5093630;28;20193;-85
2021/06/10 08:07:54;;;;;;;2.60;2.47;;;;;;;22.49;100.00;96494.22;5092882;28;20196;-85
2021/06/10 08:10:22;;;;;;;3.33;2.83;;;;;;;22.47;100.00;96485.56;5093475;28;20203;-85
2021/06/10 08:12:51;;;;;;;3.30;2.57;;;;;;;22.55;100.00;96507.50;5093628;28;20196;-85
2021/06/10 08:15:18;;;;;;;3.40;3.10;;;;;;;22.61;100.00;96476.28;5093279;28;20203;-85
2021/06/10 08:17:45;;;;;;;3.27;2.90;;;;;;;22.62;100.00;96482.47;5093508;28;20359;-85
2021/06/10 08:20:13;;;;;;;2.33;2.20;;;;;;;22.51;100.00;96476.88;5093319;28;20188;-85
2021/06/10 08:22:40;;;;;;;3.37;2.70;;;;;;;22.67;100.00;96455.81;5093558;28;20207;-85
2021/06/10 08:25:08;;;;;;;3.23;2.70;;;;;;;22.51;100.00;96449.25;5093080;28;20272;-85
2021/06/10 08:27:36;;;;;;;2.00;1.80;;;;;;;22.53;100.00;96409.66;5093400;28;20200;-85
2021/06/10 08:30:07;;;;;;;1.83;1.73;;;;;;;22.70;100.00;96428.56;5093062;28;20256;-86
2021/06/10 08:32:34;;;;;;;2.03;1.93;;;;;;;22.95;100.00;96402.38;5093406;28;20188;-85
2021/06/10 08:35:01;;;;;;;3.10;2.47;;;;;;;23.29;100.00;96386.50;5092846;28;20196;-85
2021/06/10 08:37:28;;;;;;;3.20;2.40;;;;;;;23.47;100.00;96391.72;5093355;28;20262;-85
2021/06/10 08:39:55;;;;;;;2.80;2.60;;;;;;;23.69;100.00;96396.47;5093067;28;20212;-86
2021/06/10 08:42:23;;;;;;;2.43;2.23;;;;;;;23.67;100.00;96374.41;5093041;28;20200;-85
2021/06/10 08:44:51;;;;;;;5.23;2.37;;;;;;;23.59;100.00;96366.72;5092607;28;20230;-85
2021/06/10 08:47:21;;;;;;;2.43;2.23;;;;;;;23.47;100.00;96398.94;5093170;28;20652;-85
2021/06/10 08:49:49;;;;;;;4.00;3.30;;;;;;;23.59;100.00;96428.41;5092692;28;20188;-86
2021/06/10 08:52:16;;;;;;;3.77;2.57;;;;;;;23.67;100.00;96441.47;5092914;28;20210;-86
2021/06/10 08:54:43;;;;;;;3.43;3.13;;;;;;;24.07;100.00;96385.09;5092715;28;20232;-86
2021/06/10 08:57:11;;;;;;;2.77;2.57;;;;;;;24.19;100.00;96393.09;5092550;28;20557;-86
2021/06/10 08:59:38;;;;;;;5.00;3.10;;;;;;;24.19;100.00;96390.44;5092605;28;20192;-86
2021/06/10 09:02:05;;;;;;;2.93;2.73;;;;;;;24.10;100.00;96414.16;5092696;28;20196;-86
2021/06/10 09:04:33;;;;;;;3.73;2.57;;;;;;;24.22;100.00;96402.56;5092371;28;20700;-86
2021/06/10 09:07:03;;;;;;;2.80;2.60;;;;;;;24.59;100.00;96355.41;5092858;28;20196;-86
2021/06/10 09:09:35;;;;;;;3.87;2.70;;;;;;;24.91;100.00;96369.06;5093191;28;20226;-86
2021/06/10 09:12:06;;;;;;;6.60;2.40;;;;;;;24.90;100.00;96362.06;5092600;28;20661;-83
2021/06/10 09:14:52;;;;;;;4.43;2.60;;;;;;;24.47;100.00;96370.78;5092134;28;20184;-83
2021/06/10 09:17:29;;;;;;;4.23;3.33;;;;;;;24.26;100.00;96399.13;5092294;28;20188;-84
2021/06/10 09:19:58;;;;;;;2.43;2.33;;;;;;;24.15;100.00;96408.91;5092667;28;20583;-84
2021/06/10 09:22:28;;;;;;;3.40;3.10;;;;;;;24.22;100.00;96427.53;5092343;28;20684;-83
2021/06/10 09:25:08;;;;;;;2.80;2.60;;;;;;;24.23;100.00;96420.28;5092271;28;20254;-83
2021/06/10 09:27:49;;;;;;;2.90;2.70;;;;;;;24.54;100.00;96429.72;5092448;28;20249;-84
2021/06/10 09:30:28;;;;;;;3.90;2.87;;;;;;;24.78;100.00;96352.44;5092107;28;20652;-84
2021/06/10 09:32:56;;;;;;;2.57;2.37;;;;;;;24.76;100.00;96341.94;5092411;28;20196;-83
2021/06/10 09:35:30;;;;;;;3.37;2.80;;;;;;;24.57;100.00;96286.84;5092062;28;20204;-83
2021/06/10 09:37:58;;;;;;;2.67;2.47;;;;;;;25.05;100.00;96312.22;5092369;28;20195;-84
2021/06/10 09:40:26;;;;;;;3.07;2.30;;;;;;;25.13;100.00;96280.34;5092009;28;20203;-84
2021/06/10 09:42:53;;;;;;;4.17;2.73;;;;;;;25.08;100.00;96231.88;5092190;28;20203;-84
2021/06/10 09:45:23;;;;;;;2.77;2.57;;;;;;;25.25;100.00;96247.13;5091793;28;20200;-84
2021/06/10 09:47:53;;;;;;;2.83;2.60;;;;;;;25.47;100.00;96204.88;5092259;28;20191;-84
2021/06/10 09:50:22;;;;;;;3.37;2.73;;;;;;;25.42;100.00;96139.44;5091732;28;20334;-84
2021/06/10 09:52:55;;;;;;;2.73;2.53;;;;;;;25.46;100.00;96149.44;5092462;28;20200;-83
2021/06/10 09:55:35;;;;;;;2.87;2.27;;;;;;;25.53;100.00;96103.50;5091792;28;20239;-83
2021/06/10 09:58:21;;;;;;;2.73;2.60;;;;;;;25.80;100.00;96133.84;5092164;28;20198;-84
2021/06/10 10:00:53;;;;;;;3.00;2.80;;;;;;;25.67;100.00;96146.91;5092007;28;20200;-84
2021/06/10 10:03:36;;;;;;;2.67;2.47;;;;;;;25.69;100.00;96118.66;5091981;28;20230;-83
2021/06/10 10:06:06;;;;;;;2.50;2.30;;;;;;;25.38;100.00;96123.78;5091909;28;20187;-84
2021/06/10 10:08:35;;;;;;;2.67;2.50;;;;;;;25.35;100.00;96070.50;5091644;28;20218;-83
2021/06/10 10:11:04;;;;;;;4.27;2.80;;;;;;;25.32;100.00;96062.97;5091902;28;20199;-84
2021/06/10 10:13:32;;;;;;;3.07;2.80;;;;;;;25.72;100.00;96091.22;5091968;28;20664;-84
2021/06/10 10:16:00;;;;;;;3.03;2.80;;;;;;;25.64;100.00;96045.16;5092266;28;20192;-84
2021/06/10 10:18:28;;;;;;;4.47;3.00;;;;;;;25.66;100.00;96070.72;5091519;28;20249;-84
2021/06/10 10:20:59;;;;;;;3.20;2.80;;;;;;;25.89;100.00;96095.69;5091872;28;20204;-85
2021/06/10 10:23:26;;;;;;;2.90;2.70;;;;;;;25.97;100.00;96103.25;5091646;28;20216;-84
2021/06/10 10:25:59;;;;;;;3.97;2.75;;;;;;;25.86;100.00;96140.09;5091694;28;20200;-84
2021/06/10 10:28:29;;;;;;;4.13;2.85;;;;;;;26.01;100.00;96056.72;5091564;28;20192;-83
2021/06/10 10:30:56;;;;;;;2.97;2.78;;;;;;;26.40;100.00;96082.50;5094475;28;20204;-84
2021/06/10 10:33:25;;;;;;;5.18;2.72;;;;;;;26.38;100.00;96004.59;5095571;28;20611;-84
2021/06/10 10:35:55;;;;;;;4.38;3.17;;;;;;;25.74;100.00;95991.41;5095295;28;20196;-84
2021/06/10 10:38:31;;;;;;;3.80;2.60;;;;;;;25.96;100.00;95999.34;5095310;28;20724;-83
2021/06/10 10:41:01;;;;;;;3.03;2.83;;;;;;;26.51;100.00;96003.31;5095479;28;20181;-84
2021/06/10 10:43:29;;;;;;;4.75;3.25;;;;;;;26.66;100.00;95949.44;5095546;28;20587;-84
2021/06/10 10:46:10;;;;;;;3.08;2.67;;;;;;;26.71;100.00;95960.22;5095745;28;20218;-84
2021/06/10 10:48:39;;;;;;;3.20;3.00;;;;;;;26.90;100.00;95954.31;5094936;28;20580;-84
2021/06/10 10:51:29;;;;;;;3.13;2.80;;;;;;;27.04;100.00;95949.97;5095225;28;20200;-84
2021/06/10 10:53:59;;;;;;;3.88;2.63;;;;;;;26.39;100.00;95935.34;5095071;28;20327;-85
2021/06/10 10:56:38;;;;;;;3.33;2.92;;;;;;;26.02;100.00;95992.91;5095110;28;20712;-85
2021/06/10 10:59:16;;;;;;;2.67;2.47;;;;;;;25.75;100.00;95993.81;5095434;28;20192;-85
2021/06/10 11:02:02;;;;;;;3.08;2.88;;;;;;;25.26;100.00;96012.06;5095327;28;20554;-85
2021/06/10 11:04:50;;;;;;;2.42;2.25;;;;;;;24.79;100.00;96053.84;5094840;28;20226;-85
2021/06/10 11:07:55;;;;;;;2.67;2.47;;;;;;;24.13;100.00;96031.59;5094975;28;20184;-84
2021/06/10 11:11:00;;;;;;;2.90;2.70;;;;;;;23.61;100.00;96066.81;5094680;28;20188;-84
2021/06/10 11:13:29;;;;;;;3.03;2.80;;;;;;;23.52;100.00;96071.81;5092123;28;20282;-85
2021/06/10 11:15:59;;;;;;;6.17;3.10;;;;;;;23.37;100.00;96109.09;5094460;28;20261;-85
2021/06/10 11:18:43;;;;;;;3.77;2.40;;;;;;;23.27;100.00;96133.84;5094621;28;20192;-84
2021/06/10 11:21:11;;;;;;;3.53;2.80;;;;;;;23.62;100.00;96069.28;5094735;28;20192;-85
2021/06/10 11:23:38;;;;;;;2.70;2.50;;;;;;;24.08;100.00;96044.97;5094273;28;20596;-84
2021/06/10 11:26:18;;;;;;;3.97;2.30;;;;;;;24.14;100.00;95995.63;5094427;28;20192;-84
2021/06/10 11:29:02;;;;;;;2.93;2.70;;;;;;;24.71;100.00;96007.81;5094361;28;20636;-85
2021/06/10 11:31:31;;;;;;;2.67;2.47;;;;;;;24.94;100.00;95983.31;5094502;28;20193;-84
2021/06/10 11:34:30;;;;;;;2.60;2.40;;;;;;;24.46;100.00;95917.03;5094138;28;20192;-84
2021/06/10 11:36:58;;;;;;;2.70;2.50;;;;;;;24.01;100.00;95988.78;5094060;28;20641;-84
2021/06/10 11:39:30;;;;;;;2.50;2.30;;;;;;;24.16;100.00;95951.34;5094066;28;20197;-84
2021/06/10 11:42:06;;;;;;;4.70;3.13;;;;;;;23.98;100.00;95989.25;5094022;28;20266;-84
2021/06/10 11:44:45;;;;;;;2.87;2.67;;;;;;;24.00;100.00;95995.19;5093910;28;20208;-84
2021/06/10 11:47:26;;;;;;;4.90;3.07;;;;;;;24.36;100.00;96020.59;5094093;28;20188;-84
2021/06/10 11:49:54;;;;;;;2.80;2.60;;;;;;;24.44;100.00;95987.94;5093594;28;20185;-84
2021/06/10 11:52:21;;;;;;;3.40;3.20;;;;;;;24.49;100.00;95932.63;5093929;28;20649;-84
2021/06/10 11:55:06;;;;;;;3.00;2.80;;;;;;;24.48;100.00;95995.47;5093590;28;20235;-84
2021/06/10 11:57:34;;;;;;;3.13;2.93;;;;;;;24.20;100.00;96008.03;5093936;28;20188;-84
2021/06/10 12:00:15;;;;;;;3.73;3.00;;;;;;;24.31;100.00;96008.97;5093506;28;20200;-84
2021/06/10 12:02:42;;;;;;;10.00;3.23;;;;;;;24.36;100.00;96055.50;5094006;28;20298;-84
2021/06/10 12:05:15;;;;;;;3.83;3.53;;;;;;;24.18;100.00;96042.41;5093385;28;20817;-85
2021/06/10 12:07:43;;;;;;;3.30;3.10;;;;;;;24.08;100.00;96002.00;5093491;28;20724;-84
2021/06/10 12:10:16;;;;;;;3.73;3.43;;;;;;;24.00;100.00;95989.00;5093666;28;20572;-84
2021/06/10 12:12:45;;;;;;;3.53;3.30;;;;;;;24.19;100.00;96027.91;5093582;28;20271;-84
2021/06/10 12:15:32;;;;;;;3.13;2.93;;;;;;;23.80;100.00;95931.34;5093133;28;20192;-84